Time;durP1;ratioP1;P1;durP2;ratioP2;P2;SDS_P1;SDS_P2;PMS_P1;PMS_P2;Temp;Humidity;BMP_temperature;BMP_pressure;BME280_temperature;BME280_humidity;BME280_pressure;Samples;Min_cycle;Max_cycle;Signal;HPM_P1;HPM_P2
2023/11/29 00:02:24;;;;;;;0.35;0.35;;;;;;;6.64;100.00;95264.03;5039434;28;20053;-69
2023/11/29 00:04:51;;;;;;;0.30;0.30;;;;;;;6.79;100.00;95265.66;5024518;28;20056;-69
2023/11/29 00:07:18;;;;;;;0.40;0.40;;;;;;;7.02;100.00;95257.03;5024439;28;20084;-70
2023/11/29 00:09:46;;;;;;;0.40;0.40;;;;;;;7.52;100.00;95270.47;5024907;28;20107;-70
2023/11/29 00:12:13;;;;;;;0.30;0.30;;;;;;;7.71;100.00;95286.59;5023262;28;20045;-67
2023/11/29 00:14:40;;;;;;;0.30;0.30;;;;;;;7.23;100.00;95279.91;5025216;28;20045;-68
2023/11/29 00:17:07;;;;;;;0.40;0.40;;;;;;;7.26;100.00;95262.59;5024793;28;20050;-67
2023/11/29 00:19:37;;;;;;;0.40;0.40;;;;;;;6.98;100.00;95235.03;5039310;28;20045;-68
2023/11/29 00:22:05;;;;;;;0.40;0.40;;;;;;;7.48;100.00;95296.44;5024680;28;20157;-68
2023/11/29 00:24:32;;;;;;;0.32;0.32;;;;;;;7.46;100.00;95274.78;5024317;28;20073;-69
2023/11/29 00:26:59;;;;;;;0.40;0.40;;;;;;;7.59;100.00;95270.47;5024630;28;20057;-69
2023/11/29 00:29:27;;;;;;;0.40;0.40;;;;;;;7.64;100.00;95267.31;5024514;28;20064;-69
2023/11/29 00:31:54;;;;;;;0.40;0.40;;;;;;;7.76;100.00;95265.34;5039876;28;20195;-69
2023/11/29 00:34:21;;;;;;;0.40;0.40;;;;;;;7.84;100.00;95275.94;5039832;28;20496;-69
2023/11/29 00:36:49;;;;;;;0.40;0.40;;;;;;;7.84;100.00;95266.91;5024439;28;20052;-69
2023/11/29 00:39:16;;;;;;;0.40;0.40;;;;;;;7.90;100.00;95262.56;5024483;28;20050;-69
2023/11/29 00:41:43;;;;;;;0.40;0.40;;;;;;;7.91;100.00;95264.13;5023154;28;20475;-69
2023/11/29 00:44:10;;;;;;;0.40;0.40;;;;;;;7.95;100.00;95264.94;5024584;28;20045;-69
2023/11/29 00:46:36;;;;;;;0.40;0.40;;;;;;;7.98;100.00;95264.13;5024254;28;20152;-69
2023/11/29 00:49:03;;;;;;;0.40;0.40;;;;;;;7.50;100.00;95215.00;5039372;28;20500;-69
2023/11/29 00:51:30;;;;;;;0.40;0.40;;;;;;;7.34;100.00;95202.78;5038960;28;20082;-69
2023/11/29 00:53:57;;;;;;;0.40;0.40;;;;;;;7.94;100.00;95299.16;5024186;28;20045;-68
2023/11/29 00:56:23;;;;;;;0.38;0.38;;;;;;;7.65;100.00;95307.47;5023590;28;20428;-68
2023/11/29 00:58:50;;;;;;;0.38;0.38;;;;;;;6.89;100.00;95303.41;5023826;28;20053;-69
2023/11/29 01:01:17;;;;;;;0.30;0.30;;;;;;;6.24;100.00;95234.06;5023619;28;20057;-69
2023/11/29 01:03:44;;;;;;;0.30;0.30;;;;;;;6.60;100.00;95290.75;5024197;28;20057;-69
2023/11/29 01:06:11;;;;;;;0.30;0.30;;;;;;;6.36;100.00;95241.94;5038624;28;20148;-68
2023/11/29 01:08:38;;;;;;;0.30;0.30;;;;;;;6.85;100.00;95302.63;5023240;28;20507;-70
2023/11/29 01:11:05;;;;;;;0.40;0.40;;;;;;;6.85;100.00;95313.63;5022396;28;20504;-68
2023/11/29 01:13:32;;;;;;;0.30;0.30;;;;;;;6.77;100.00;95290.03;5038384;28;20103;-70
2023/11/29 01:15:59;;;;;;;0.38;0.38;;;;;;;6.73;100.00;95275.47;5023868;28;20053;-69
2023/11/29 01:18:27;;;;;;;0.32;0.32;;;;;;;6.12;100.00;95193.16;5038638;28;20578;-69
2023/11/29 01:20:55;;;;;;;0.40;0.40;;;;;;;6.94;100.00;95319.53;5023415;28;20428;-70
2023/11/29 01:23:21;;;;;;;0.30;0.30;;;;;;;6.56;100.00;95251.44;5023620;28;20487;-70
2023/11/29 01:25:48;;;;;;;0.30;0.30;;;;;;;6.97;100.00;95316.00;5023163;28;20625;-69
2023/11/29 01:28:15;;;;;;;0.40;0.40;;;;;;;6.87;100.00;95316.78;5023347;28;20050;-69
2023/11/29 01:30:42;;;;;;;0.30;0.30;;;;;;;6.62;100.00;95288.41;5023276;28;20079;-70
2023/11/29 01:33:08;;;;;;;0.35;0.35;;;;;;;6.24;100.00;95245.03;5022268;28;20146;-69
2023/11/29 01:35:35;;;;;;;0.30;0.30;;;;;;;6.69;100.00;95295.88;5022482;28;20143;-69
2023/11/29 01:38:02;;;;;;;0.40;0.40;;;;;;;6.66;100.00;95300.19;5023161;28;20068;-68
2023/11/29 01:40:29;;;;;;;0.30;0.30;;;;;;;6.58;100.00;95308.81;5023321;28;20053;-70
2023/11/29 01:42:55;;;;;;;0.40;0.40;;;;;;;6.52;100.00;95313.91;5023108;28;20057;-69
2023/11/29 01:45:22;;;;;;;0.40;0.40;;;;;;;6.41;100.00;95315.81;5023165;28;20601;-69
2023/11/29 01:47:50;;;;;;;0.30;0.30;;;;;;;6.38;100.00;95344.09;5023260;28;20152;-68
2023/11/29 01:50:20;;;;;;;0.30;0.30;;;;;;;6.34;100.00;95354.25;5038031;28;20124;-69
2023/11/29 01:52:47;;;;;;;0.30;0.30;;;;;;;6.02;100.00;95314.81;5023163;28;20081;-69
2023/11/29 01:55:18;;;;;;;0.40;0.40;;;;;;;6.06;100.00;95338.41;5022694;28;20141;-70
2023/11/29 01:57:47;;;;;;;0.30;0.30;;;;;;;6.14;100.00;95347.47;5037868;28;20536;-69
2023/11/29 02:00:14;;;;;;;0.30;0.30;;;;;;;6.00;100.00;95311.66;5023003;28;20051;-70
2023/11/29 02:02:42;;;;;;;0.30;0.30;;;;;;;6.21;100.00;95355.78;5022901;28;20139;-69
2023/11/29 02:05:10;;;;;;;0.30;0.30;;;;;;;6.13;100.00;95343.91;5022788;28;20046;-69
2023/11/29 02:07:38;;;;;;;0.30;0.30;;;;;;;6.11;100.00;95345.50;5022724;28;20135;-71
2023/11/29 02:10:06;;;;;;;0.40;0.40;;;;;;;6.17;100.00;95343.94;5023188;28;20049;-69
2023/11/29 02:12:33;;;;;;;0.40;0.40;;;;;;;5.59;100.00;95285.44;5024004;28;20132;-70
2023/11/29 02:15:00;;;;;;;0.30;0.30;;;;;;;6.03;100.00;95363.09;5024269;28;20129;-70
2023/11/29 02:17:26;;;;;;;0.30;0.30;;;;;;;5.74;100.00;95347.53;5039183;28;20432;-69
2023/11/29 02:19:53;;;;;;;0.30;0.30;;;;;;;5.88;100.00;95380.66;5023970;28;20053;-69
2023/11/29 02:22:21;;;;;;;0.30;0.30;;;;;;;5.84;100.00;95385.31;5023937;28;20057;-69
2023/11/29 02:24:48;;;;;;;0.30;0.30;;;;;;;5.87;100.00;95384.56;5024164;28;20057;-71
2023/11/29 02:27:15;;;;;;;0.30;0.30;;;;;;;5.75;100.00;95382.09;5022749;28;20053;-71
2023/11/29 02:29:41;;;;;;;0.30;0.30;;;;;;;5.66;100.00;95381.59;5022800;28;20116;-72
2023/11/29 02:32:08;;;;;;;0.30;0.30;;;;;;;5.68;100.00;95388.31;5024431;28;20069;-71
2023/11/29 02:34:35;;;;;;;0.30;0.30;;;;;;;5.33;100.00;95346.00;5024258;28;20066;-70
2023/11/29 02:37:03;;;;;;;0.30;0.30;;;;;;;5.55;100.00;95383.47;5023816;28;20053;-69
2023/11/29 02:39:30;;;;;;;0.30;0.30;;;;;;;5.33;100.00;95366.00;5022525;28;20057;-71
2023/11/29 02:41:57;;;;;;;0.30;0.30;;;;;;;5.22;100.00;95358.81;5022511;28;20060;-70
2023/11/29 02:44:24;;;;;;;0.30;0.30;;;;;;;4.97;100.00;95368.75;5022826;28;20069;-70
2023/11/29 02:46:51;;;;;;;0.30;0.30;;;;;;;5.41;100.00;95416.28;5024824;28;20554;-70
2023/11/29 02:49:18;;;;;;;0.30;0.30;;;;;;;5.24;100.00;95411.38;5026143;28;20159;-70
2023/11/29 02:51:45;;;;;;;0.30;0.30;;;;;;;5.39;100.00;95435.88;5026233;28;20179;-70
2023/11/29 02:54:11;;;;;;;0.30;0.30;;;;;;;5.37;100.00;95438.22;5027518;28;20057;-70
2023/11/29 02:56:38;;;;;;;0.30;0.30;;;;;;;5.07;100.00;95401.00;5042846;28;20045;-71
2023/11/29 02:59:05;;;;;;;0.30;0.30;;;;;;;5.46;100.00;95446.94;5042401;28;20061;-70
2023/11/29 03:01:32;;;;;;;0.30;0.30;;;;;;;5.35;100.00;95456.22;5042596;28;20053;-69
2023/11/29 03:03:59;;;;;;;0.30;0.30;;;;;;;5.26;100.00;95455.72;5027476;28;20096;-69
2023/11/29 03:06:26;;;;;;;0.30;0.30;;;;;;;5.32;100.00;95467.94;5027155;28;20049;-69
2023/11/29 03:08:52;;;;;;;0.30;0.30;;;;;;;5.40;100.00;95447.66;5026966;28;20716;-71
2023/11/29 03:11:19;;;;;;;0.30;0.30;;;;;;;5.41;100.00;95451.97;5025951;28;20053;-71
2023/11/29 03:13:46;;;;;;;0.30;0.30;;;;;;;5.51;100.00;95454.03;5026786;28;20093;-69
2023/11/29 03:16:13;;;;;;;0.30;0.30;;;;;;;5.11;100.00;95421.84;5027267;28;20053;-69
2023/11/29 03:18:39;;;;;;;0.30;0.30;;;;;;;5.48;100.00;95457.53;5027717;28;20515;-70
2023/11/29 03:21:06;;;;;;;0.30;0.30;;;;;;;5.42;100.00;95464.53;5027238;28;20444;-71
2023/11/29 03:23:33;;;;;;;0.30;0.30;;;;;;;5.33;100.00;95461.28;5026789;28;20119;-72
2023/11/29 03:26:06;;;;;;;0.30;0.30;;;;;;;4.81;100.00;95398.34;5027092;28;20056;-72
2023/11/29 03:28:32;;;;;;;0.30;0.30;;;;;;;5.21;100.00;95465.09;5027685;28;20057;-70
2023/11/29 03:30:59;;;;;;;0.30;0.30;;;;;;;5.18;100.00;95467.78;5027340;28;20401;-72
2023/11/29 03:33:26;;;;;;;0.30;0.30;;;;;;;5.11;100.00;95489.63;5027219;28;20050;-70
2023/11/29 03:35:53;;;;;;;0.30;0.30;;;;;;;4.83;100.00;95450.88;5035419;28;20045;-70
2023/11/29 03:38:20;;;;;;;0.28;0.28;;;;;;;5.08;100.00;95484.91;5026717;28;20068;-71
2023/11/29 03:40:47;;;;;;;0.30;0.30;;;;;;;4.43;100.00;95383.78;4986169;28;20089;-71
2023/11/29 03:43:14;;;;;;;0.30;0.30;;;;;;;5.04;100.00;95492.31;4987640;28;20509;-71
2023/11/29 03:45:40;;;;;;;0.30;0.30;;;;;;;5.01;100.00;95490.31;4987619;28;20054;-71
2023/11/29 03:48:07;;;;;;;0.30;0.30;;;;;;;4.94;100.00;95491.00;4987183;28;20051;-71
2023/11/29 03:50:34;;;;;;;0.30;0.30;;;;;;;4.59;100.00;95447.44;4986932;28;20054;-70
2023/11/29 03:53:01;;;;;;;0.30;0.30;;;;;;;4.89;100.00;95493.28;4987381;28;20050;-70
2023/11/29 03:55:28;;;;;;;0.30;0.30;;;;;;;4.68;100.00;95468.31;4985737;28;20133;-70
2023/11/29 03:57:54;;;;;;;0.30;0.30;;;;;;;4.81;100.00;95502.56;4987089;28;20069;-70
2023/11/29 04:00:23;;;;;;;0.30;0.30;;;;;;;4.78;100.00;95506.03;4986551;28;20077;-70
2023/11/29 04:02:49;;;;;;;0.30;0.30;;;;;;;4.76;100.00;95500.16;4986620;28;20053;-70
2023/11/29 04:05:16;;;;;;;0.30;0.30;;;;;;;4.73;100.00;95520.09;5001797;28;20050;-70
2023/11/29 04:07:43;;;;;;;0.30;0.30;;;;;;;4.78;100.00;95526.03;4986802;28;20133;-71
2023/11/29 04:10:10;;;;;;;0.30;0.30;;;;;;;4.63;100.00;95519.56;5001482;28;20513;-71
2023/11/29 04:12:38;;;;;;;0.30;0.30;;;;;;;4.66;100.00;95523.53;4986168;28;20050;-71
2023/11/29 04:15:05;;;;;;;0.30;0.30;;;;;;;4.68;100.00;95531.38;4986850;28;20065;-70
2023/11/29 04:17:32;;;;;;;0.30;0.30;;;;;;;4.62;100.00;95539.13;5001569;28;20439;-71
2023/11/29 04:19:59;;;;;;;0.30;0.30;;;;;;;4.56;100.00;95541.41;4986877;28;20058;-71
2023/11/29 04:22:26;;;;;;;0.30;0.30;;;;;;;4.53;100.00;95546.81;5001311;28;20654;-72
2023/11/29 04:24:52;;;;;;;0.30;0.30;;;;;;;4.26;100.00;95507.63;4986462;28;20069;-72
2023/11/29 04:27:19;;;;;;;0.20;0.20;;;;;;;4.53;100.00;95550.38;4986666;28;20046;-70
2023/11/29 04:29:46;;;;;;;0.30;0.30;;;;;;;4.56;100.00;95563.34;5001458;28;20361;-72
2023/11/29 04:32:13;;;;;;;0.30;0.30;;;;;;;4.54;100.00;95560.16;4986005;28;20062;-73
2023/11/29 04:34:39;;;;;;;0.20;0.20;;;;;;;3.78;100.00;95472.00;4986567;28;20050;-71
2023/11/29 04:37:13;;;;;;;0.30;0.30;;;;;;;4.46;100.00;95574.91;4986362;28;20512;-73
2023/11/29 04:39:41;;;;;;;0.30;0.30;;;;;;;4.35;100.00;95568.47;5017279;28;20524;-72
2023/11/29 04:42:08;;;;;;;0.30;0.30;;;;;;;4.37;100.00;95568.91;4986340;28;20062;-73
2023/11/29 04:44:35;;;;;;;0.30;0.30;;;;;;;4.31;100.00;95573.09;5017343;28;20056;-72
2023/11/29 04:47:03;;;;;;;0.20;0.20;;;;;;;4.07;100.00;95578.94;5017475;28;20488;-72
2023/11/29 04:49:30;;;;;;;0.30;0.30;;;;;;;3.82;100.00;95533.88;5017258;28;20058;-70
2023/11/29 04:51:57;;;;;;;0.30;0.30;;;;;;;3.60;100.00;95518.22;4985590;28;20456;-71
2023/11/29 04:54:24;;;;;;;0.20;0.20;;;;;;;4.11;100.00;95596.22;4985972;28;20062;-71
2023/11/29 04:56:51;;;;;;;0.30;0.30;;;;;;;4.08;100.00;95602.44;5017143;28;20054;-72
2023/11/29 04:59:18;;;;;;;0.30;0.30;;;;;;;4.12;100.00;95608.78;4986057;28;20085;-71
2023/11/29 05:01:45;;;;;;;0.30;0.30;;;;;;;4.02;100.00;95609.38;4985831;28;20058;-74
2023/11/29 05:04:12;;;;;;;0.30;0.30;;;;;;;4.07;100.00;95611.81;4985260;28;20473;-73
2023/11/29 05:06:39;;;;;;;0.20;0.20;;;;;;;3.91;100.00;95596.63;4985717;28;20250;-71
2023/11/29 05:09:06;;;;;;;0.20;0.20;;;;;;;3.97;100.00;95620.63;4985651;28;20050;-71
2023/11/29 05:11:33;;;;;;;0.30;0.30;;;;;;;3.95;100.00;95625.66;4983254;28;20081;-72
2023/11/29 05:14:02;;;;;;;0.20;0.20;;;;;;;3.89;100.00;95618.91;5000089;28;20113;-70
2023/11/29 05:16:29;;;;;;;0.30;0.30;;;;;;;3.88;100.00;95628.28;5000401;28;20046;-71
2023/11/29 05:18:57;;;;;;;0.20;0.20;;;;;;;3.88;100.00;95625.53;4983965;28;20062;-70
2023/11/29 05:21:25;;;;;;;0.20;0.20;;;;;;;3.46;100.00;95575.44;4985287;28;20061;-71
2023/11/29 05:23:52;;;;;;;0.20;0.20;;;;;;;3.96;100.00;95643.69;5000095;28;20061;-73
2023/11/29 05:26:19;;;;;;;0.30;0.30;;;;;;;3.96;100.00;95649.16;4985682;28;20050;-72
2023/11/29 05:28:46;;;;;;;0.20;0.20;;;;;;;3.87;100.00;95645.06;4985490;28;20089;-71
2023/11/29 05:31:13;;;;;;;0.20;0.20;;;;;;;3.96;100.00;95638.22;4983689;28;20137;-72
2023/11/29 05:33:40;;;;;;;0.20;0.20;;;;;;;3.27;100.00;95550.81;4986009;28;20137;-70
2023/11/29 05:36:08;;;;;;;0.28;0.28;;;;;;;3.81;100.00;95652.78;4992366;28;20112;-73
2023/11/29 05:38:35;;;;;;;0.30;0.30;;;;;;;3.91;100.00;95656.88;5016053;28;20066;-71
2023/11/29 05:41:02;;;;;;;0.20;0.20;;;;;;;3.71;100.00;95664.31;4985260;28;20603;-72
2023/11/29 05:43:29;;;;;;;0.28;0.28;;;;;;;3.75;100.00;95672.59;4983594;28;20533;-72
2023/11/29 05:45:56;;;;;;;0.28;0.28;;;;;;;3.85;100.00;95670.06;4984147;28;20061;-70
2023/11/29 05:48:23;;;;;;;0.20;0.20;;;;;;;3.93;100.00;95671.81;4984341;28;20425;-72
2023/11/29 05:50:49;;;;;;;0.30;0.30;;;;;;;3.97;100.00;95672.66;4971370;28;20126;-71
2023/11/29 05:53:17;;;;;;;0.30;0.30;;;;;;;3.96;100.00;95654.66;4964873;28;20058;-72
2023/11/29 05:55:44;;;;;;;0.20;0.20;;;;;;;3.84;100.00;95652.03;4965445;28;20086;-74
2023/11/29 05:58:11;;;;;;;0.20;0.20;;;;;;;3.84;100.00;95654.78;4965148;28;20429;-72
2023/11/29 06:00:38;;;;;;;0.30;0.30;;;;;;;4.11;100.00;95667.44;4965932;28;20149;-73
2023/11/29 06:03:06;;;;;;;0.30;0.30;;;;;;;2.33;100.00;95380.09;4966025;28;20073;-72
2023/11/29 06:05:34;;;;;;;0.20;0.20;;;;;;;4.25;100.00;95705.31;4965468;28;20145;-73
2023/11/29 06:08:01;;;;;;;0.20;0.20;;;;;;;3.53;100.00;95608.41;4980304;28;20054;-73
2023/11/29 06:10:27;;;;;;;0.20;0.20;;;;;;;4.25;100.00;95710.78;4965379;28;20050;-73
2023/11/29 06:12:54;;;;;;;0.30;0.30;;;;;;;4.18;100.00;95672.28;4965402;28;20063;-73
2023/11/29 06:15:21;;;;;;;0.30;0.30;;;;;;;4.53;100.00;95717.59;4965221;28;20081;-72
2023/11/29 06:17:48;;;;;;;0.30;0.30;;;;;;;4.50;100.00;95707.34;4967142;28;20105;-71
2023/11/29 06:20:21;;;;;;;0.30;0.30;;;;;;;4.48;100.00;95693.22;4984898;28;20050;-72
2023/11/29 06:22:49;;;;;;;0.30;0.30;;;;;;;4.36;100.00;95646.78;4987524;28;20073;-73
2023/11/29 06:25:16;;;;;;;0.30;0.30;;;;;;;4.84;100.00;95700.09;4988803;28;20057;-72
2023/11/29 06:27:44;;;;;;;0.30;0.30;;;;;;;4.99;100.00;95717.59;4988483;28;20050;-74
2023/11/29 06:30:12;;;;;;;0.30;0.30;;;;;;;5.14;100.00;95733.16;4988655;28;20061;-74
2023/11/29 06:32:41;;;;;;;0.30;0.30;;;;;;;4.74;100.00;95647.81;4988340;28;20496;-73
2023/11/29 06:35:12;;;;;;;0.30;0.30;;;;;;;5.06;100.00;95701.28;4988575;28;20093;-76
2023/11/29 06:37:39;;;;;;;0.30;0.30;;;;;;;4.42;100.00;95606.16;4985037;28;20122;-63
2023/11/29 06:40:10;;;;;;;0.30;0.30;;;;;;;5.22;100.00;95737.56;4987000;28;20050;-61
2023/11/29 06:42:40;;;;;;;0.30;0.30;;;;;;;5.47;100.00;95749.75;4986361;28;20081;-61
2023/11/29 06:45:09;;;;;;;0.30;0.30;;;;;;;5.22;100.00;95682.69;4990744;28;20784;-60
2023/11/29 06:47:37;;;;;;;0.30;0.30;;;;;;;5.58;100.00;95717.75;4973203;28;20056;-67
2023/11/29 06:50:04;;;;;;;0.30;0.30;;;;;;;5.91;100.00;95756.31;4993349;28;20151;-60
2023/11/29 06:52:32;;;;;;;0.30;0.30;;;;;;;5.12;100.00;95622.94;5000696;28;20421;-63
2023/11/29 06:54:59;;;;;;;0.30;0.30;;;;;;;6.11;100.00;95758.56;4986626;28;20517;-63
2023/11/29 06:57:26;;;;;;;0.30;0.30;;;;;;;6.27;100.00;95766.63;4987118;28;20046;-64
2023/11/29 06:59:53;;;;;;;0.30;0.30;;;;;;;4.80;100.00;95512.75;4986328;28;20530;-63
2023/11/29 07:02:20;;;;;;;0.30;0.30;;;;;;;5.84;100.00;95662.81;4985424;28;20391;-64
2023/11/29 07:04:48;;;;;;;0.30;0.30;;;;;;;6.80;100.00;95780.97;4987469;28;20488;-68
2023/11/29 07:07:16;;;;;;;0.30;0.30;;;;;;;6.94;100.00;95784.69;4985503;28;20046;-61
2023/11/29 07:09:43;;;;;;;0.40;0.40;;;;;;;7.08;100.00;95787.56;4986670;28;20105;-59
2023/11/29 07:12:10;;;;;;;0.40;0.40;;;;;;;6.46;100.00;95683.97;4986870;28;20530;-69
2023/11/29 07:14:37;;;;;;;0.32;0.32;;;;;;;7.30;100.00;95797.63;4987468;28;20608;-63
2023/11/29 07:17:05;;;;;;;0.30;0.30;;;;;;;7.42;100.00;95800.09;4984924;28;20077;-61
2023/11/29 07:19:33;;;;;;;0.40;0.40;;;;;;;7.60;100.00;95805.78;4986636;28;20140;-60
2023/11/29 07:22:00;;;;;;;0.38;0.38;;;;;;;5.91;100.00;95536.50;4985474;28;20042;-72
2023/11/29 07:24:27;;;;;;;0.35;0.35;;;;;;;7.90;100.00;95802.84;4985927;28;20062;-59
2023/11/29 07:26:54;;;;;;;0.40;0.40;;;;;;;8.10;100.00;95795.88;4987024;28;20050;-60
2023/11/29 07:29:21;;;;;;;0.40;0.40;;;;;;;7.47;100.00;95725.38;4986513;28;20046;-64
2023/11/29 07:31:48;;;;;;;0.40;0.40;;;;;;;8.37;100.00;95802.78;4984935;28;20082;-63
2023/11/29 07:34:14;;;;;;;0.40;0.40;;;;;;;7.58;100.00;95649.09;4985038;28;20124;-66
2023/11/29 07:36:44;;;;;;;0.40;0.40;;;;;;;8.70;100.00;95791.50;4986577;28;20054;-65
2023/11/29 07:39:11;;;;;;;0.40;0.40;;;;;;;8.19;100.00;95688.78;4991349;28;20050;-64
2023/11/29 07:41:37;;;;;;;0.40;0.40;;;;;;;9.09;100.00;95792.41;4986450;28;20054;-60
2023/11/29 07:44:04;;;;;;;0.40;0.40;;;;;;;8.68;100.00;95741.41;4985583;28;20513;-64
2023/11/29 07:46:31;;;;;;;0.40;0.40;;;;;;;8.92;100.00;95710.31;5006242;28;20051;-63
2023/11/29 07:48:58;;;;;;;0.40;0.40;;;;;;;9.56;100.00;95788.53;4982546;28;20065;-66
2023/11/29 07:51:29;;;;;;;0.40;0.40;;;;;;;9.40;100.00;95769.56;4986547;28;20420;-72
2023/11/29 07:53:55;;;;;;;0.40;0.40;;;;;;;9.81;100.00;95794.84;4985622;28;20502;-68
2023/11/29 07:56:22;;;;;;;0.40;0.40;;;;;;;9.56;96.54;95760.88;4987566;28;20464;-61
2023/11/29 07:58:49;;;;;;;0.40;0.40;;;;;;;9.22;95.14;95804.66;5018213;28;20057;-60
2023/11/29 08:01:16;;;;;;;0.40;0.40;;;;;;;8.29;95.63;95677.00;4985719;28;20054;-62
2023/11/29 08:03:43;;;;;;;0.40;0.40;;;;;;;9.42;96.19;95811.41;4985842;28;20054;-61
2023/11/29 08:06:10;;;;;;;0.50;0.50;;;;;;;9.13;95.70;95722.19;4986036;28;20050;-69
2023/11/29 08:08:37;;;;;;;0.40;0.40;;;;;;;9.18;88.24;95723.78;4985983;28;20156;-60
2023/11/29 08:11:04;;;;;;;0.50;0.50;;;;;;;10.01;87.08;95820.91;4985443;28;20505;-57
2023/11/29 08:13:32;;;;;;;0.45;0.45;;;;;;;10.21;86.99;95819.34;4978388;28;20061;-61
2023/11/29 08:15:59;;;;;;;0.50;0.50;;;;;;;10.31;87.97;95819.31;4986027;28;20433;-65
2023/11/29 08:18:26;;;;;;;0.40;0.40;;;;;;;9.59;87.33;95711.13;4984429;28;20531;-72
2023/11/29 08:20:53;;;;;;;0.45;0.45;;;;;;;10.51;86.76;95823.22;4985878;28;20051;-62
2023/11/29 08:23:20;;;;;;;0.40;0.40;;;;;;;10.73;86.45;95820.41;4984852;28;20050;-60
2023/11/29 08:25:47;;;;;;;0.50;0.50;;;;;;;9.23;83.92;95605.34;5017310;28;20513;-64
2023/11/29 08:28:13;;;;;;;0.40;0.40;;;;;;;10.66;83.39;95785.22;5018020;28;20050;-64
2023/11/29 08:30:40;;;;;;;0.50;0.50;;;;;;;10.87;82.70;95834.22;4984389;28;20057;-66
2023/11/29 08:33:07;;;;;;;0.50;0.50;;;;;;;10.39;83.24;95704.66;4970663;28;20046;-60
2023/11/29 08:35:34;;;;;;;0.47;0.47;;;;;;;10.98;82.17;95774.00;4985362;28;20066;-65
2023/11/29 08:38:01;;;;;;;0.50;0.50;;;;;;;11.47;81.05;95818.06;4983053;28;20092;-59
2023/11/29 08:40:28;;;;;;;0.50;0.50;;;;;;;11.47;78.51;95820.84;4981529;28;20433;-59
2023/11/29 08:42:55;;;;;;;0.50;0.50;;;;;;;11.11;79.64;95739.88;4985425;28;20225;-63
2023/11/29 08:45:22;;;;;;;0.50;0.50;;;;;;;11.95;78.69;95835.56;4984015;28;20062;-58
2023/11/29 08:47:49;;;;;;;0.50;0.50;;;;;;;11.51;77.50;95741.97;4985817;28;20058;-69
2023/11/29 08:50:16;;;;;;;0.50;0.50;;;;;;;10.42;76.04;95535.00;4983357;28;20090;-64
2023/11/29 08:52:43;;;;;;;0.50;0.50;;;;;;;11.80;76.54;95743.38;4988522;28;20050;-60
2023/11/29 08:55:11;;;;;;;0.55;0.55;;;;;;;12.73;72.90;95822.53;4983476;28;20050;-59
2023/11/29 08:57:37;;;;;;;0.60;0.60;;;;;;;12.89;72.69;95819.97;4985700;28;20468;-59
2023/11/29 09:00:05;;;;;;;0.60;0.60;;;;;;;13.00;73.03;95817.91;5016471;28;20092;-61
2023/11/29 09:02:32;;;;;;;0.60;0.60;;;;;;;13.06;71.57;95796.78;4985731;28;20045;-62
2023/11/29 09:04:59;;;;;;;0.60;0.60;;;;;;;12.64;70.54;95816.69;4985428;28;20073;-58
2023/11/29 09:07:26;;;;;;;0.50;0.50;;;;;;;12.35;71.53;95823.72;4984975;28;20453;-60
2023/11/29 09:09:55;;;;;;;0.60;0.60;;;;;;;12.43;72.68;95828.00;4985401;28;20058;-62
2023/11/29 09:12:25;;;;;;;0.50;0.50;;;;;;;12.73;71.33;95811.44;4992733;28;20489;-60
2023/11/29 09:14:55;;;;;;;0.60;0.60;;;;;;;11.75;73.24;95756.88;5023197;28;20499;-60
2023/11/29 09:17:25;;;;;;;0.50;0.50;;;;;;;11.96;74.12;95821.31;5026467;28;20147;-61
2023/11/29 09:19:56;;;;;;;0.57;0.57;;;;;;;11.31;72.48;95748.47;5023342;28;20462;-60
2023/11/29 09:22:22;;;;;;;0.50;0.50;;;;;;;11.66;72.93;95820.34;5021206;28;20041;-59
2023/11/29 09:24:53;;;;;;;0.60;0.60;;;;;;;12.05;72.37;95820.81;5022269;28;20136;-61
2023/11/29 09:27:20;;;;;;;0.50;0.50;;;;;;;12.01;71.83;95784.00;5022843;28;20480;-60
2023/11/29 09:29:49;;;;;;;0.60;0.60;;;;;;;12.42;72.12;95818.13;5039340;28;20132;-63
2023/11/29 09:32:15;;;;;;;0.50;0.50;;;;;;;12.56;69.85;95806.88;5023026;28;20072;-61
2023/11/29 09:34:42;;;;;;;0.55;0.55;;;;;;;12.70;69.19;95817.81;5024589;28;20050;-59
2023/11/29 09:37:09;;;;;;;0.60;0.60;;;;;;;12.28;69.54;95757.19;5039218;28;20516;-61
2023/11/29 09:39:36;;;;;;;0.60;0.60;;;;;;;12.32;67.52;95735.72;5023027;28;20144;-61
2023/11/29 09:42:03;;;;;;;0.55;0.55;;;;;;;12.99;67.85;95818.28;5024047;28;20405;-59
2023/11/29 09:44:32;;;;;;;0.50;0.50;;;;;;;12.92;70.56;95812.78;5024104;28;20502;-62
2023/11/29 09:47:00;;;;;;;0.60;0.60;;;;;;;12.96;69.81;95813.56;5038945;28;20045;-61
2023/11/29 09:49:28;;;;;;;0.50;0.50;;;;;;;12.53;70.14;95718.81;5023851;28;20053;-60
2023/11/29 09:51:54;;;;;;;0.60;0.60;;;;;;;13.11;69.49;95815.78;5022501;28;20077;-61
2023/11/29 09:54:21;;;;;;;0.52;0.52;;;;;;;13.21;70.01;95814.84;5023839;28;20420;-59
2023/11/29 09:56:48;;;;;;;0.60;0.60;;;;;;;13.46;69.48;95820.88;5026169;28;20527;-57
2023/11/29 09:59:17;;;;;;;0.60;0.60;;;;;;;13.77;68.42;95812.47;5044594;28;20123;-60
2023/11/29 10:01:46;;;;;;;0.60;0.60;;;;;;;14.05;68.23;95823.16;5029736;28;20523;-58
2023/11/29 10:04:14;;;;;;;0.60;0.60;;;;;;;12.55;65.09;95557.31;5029949;28;20057;-66
2023/11/29 10:06:41;;;;;;;0.60;0.60;;;;;;;14.36;67.44;95799.56;5030762;28;20058;-65
2023/11/29 10:09:12;;;;;;;0.60;0.60;;;;;;;12.51;65.10;95509.34;5033634;28;20485;-58
2023/11/29 10:11:43;;;;;;;0.60;0.60;;;;;;;14.30;66.04;95790.94;5042574;28;20057;-57
2023/11/29 10:14:10;;;;;;;0.60;0.60;;;;;;;14.56;65.44;95794.81;5031150;28;20136;-58
2023/11/29 10:16:38;;;;;;;0.68;0.68;;;;;;;14.64;64.00;95799.06;5030594;28;20045;-61
2023/11/29 10:19:09;;;;;;;0.60;0.60;;;;;;;13.38;62.79;95552.38;5028986;28;20063;-64
2023/11/29 10:21:41;;;;;;;0.60;0.60;;;;;;;14.98;61.49;95803.16;5030447;28;20508;-69
2023/11/29 10:24:08;;;;;;;0.60;0.60;;;;;;;14.57;60.28;95743.47;5028940;28;21002;-57
2023/11/29 10:26:35;;;;;;;0.63;0.63;;;;;;;15.17;60.58;95796.03;5030283;28;20049;-70
2023/11/29 10:29:02;;;;;;;0.60;0.60;;;;;;;15.34;62.48;95803.22;5029019;28;20045;-57
2023/11/29 10:31:29;;;;;;;0.70;0.70;;;;;;;14.99;62.59;95771.28;5029452;28;20051;-65
2023/11/29 10:33:57;;;;;;;0.70;0.70;;;;;;;14.83;62.09;95712.66;5029479;28;20059;-57
2023/11/29 10:36:26;;;;;;;0.70;0.70;;;;;;;14.51;61.89;95722.91;5029367;28;20045;-64
2023/11/29 10:39:08;;;;;;;0.63;0.63;;;;;;;14.90;61.46;95764.69;5032679;28;20156;-58
2023/11/29 10:41:43;;;;;;;0.70;0.70;;;;;;;13.94;61.21;95655.50;5030493;28;20080;-57
2023/11/29 10:44:13;;;;;;;0.60;0.60;;;;;;;14.57;62.11;95737.91;5028367;28;20050;-61
2023/11/29 10:46:41;;;;;;;0.60;0.60;;;;;;;15.11;62.57;95786.59;5029852;28;20049;-60
2023/11/29 10:49:24;;;;;;;0.60;0.60;;;;;;;15.15;60.96;95778.91;5029863;28;20061;-59
2023/11/29 10:51:50;;;;;;;0.60;0.60;;;;;;;15.24;61.91;95781.91;5029605;28;20050;-59
2023/11/29 10:54:18;;;;;;;0.60;0.60;;;;;;;15.34;60.39;95785.69;5027900;28;20049;-57
2023/11/29 10:57:06;;;;;;;0.60;0.60;;;;;;;14.46;58.52;95681.59;5040723;28;20088;-61
2023/11/29 10:59:34;;;;;;;0.60;0.60;;;;;;;14.76;60.36;95801.22;5028231;28;20064;-59
2023/11/29 11:02:01;;;;;;;0.60;0.60;;;;;;;15.04;61.02;95797.88;5027876;28;20058;-60
2023/11/29 11:04:32;;;;;;;0.60;0.60;;;;;;;14.99;61.41;95748.97;5028409;28;20053;-58
2023/11/29 11:07:02;;;;;;;0.70;0.70;;;;;;;15.61;60.11;95795.47;5043581;28;20045;-58
2023/11/29 11:09:42;;;;;;;0.60;0.60;;;;;;;15.74;57.32;95796.38;5027255;28;20061;-58
2023/11/29 11:12:29;;;;;;;0.70;0.70;;;;;;;15.34;57.52;95711.16;5024940;28;20057;-59
2023/11/29 11:14:58;;;;;;;0.70;0.70;;;;;;;15.88;57.15;95782.09;5040320;28;20216;-63
2023/11/29 11:17:25;;;;;;;0.60;0.60;;;;;;;15.86;52.53;95798.47;5024849;28;20103;-61
2023/11/29 11:19:51;;;;;;;0.63;0.63;;;;;;;15.06;51.02;95703.41;5025509;28;20053;-62
2023/11/29 11:22:21;;;;;;;0.60;0.60;;;;;;;16.05;50.44;95786.44;5024567;28;20073;-60
2023/11/29 11:25:11;;;;;;;0.70;0.70;;;;;;;16.05;50.07;95786.44;5024928;28;20060;-62
2023/11/29 11:27:39;;;;;;;0.60;0.60;;;;;;;15.67;50.11;95737.91;5026711;28;20158;-61
2023/11/29 11:30:17;;;;;;;0.70;0.70;;;;;;;16.13;50.08;95793.44;5041851;28;20063;-59
2023/11/29 11:32:51;;;;;;;0.60;0.60;;;;;;;16.15;49.67;95788.22;5026575;28;20496;-59
2023/11/29 11:35:20;;;;;;;0.70;0.70;;;;;;;16.29;48.83;95787.84;5026498;28;20053;-59
2023/11/29 11:37:49;;;;;;;0.60;0.60;;;;;;;16.41;47.74;95778.75;5026512;28;20049;-61